sensor_id;sensor_type;location;lat;lon;timestamp;pressure;altitude;pressure_sealevel;temperature;humidity
84957;BME280;75252;45.438;-73.814;2024-03-06T00:01:55;101139.44;;;7.69;78.05
84957;BME280;75252;45.438;-73.814;2024-03-06T00:04:21;101143.06;;;7.65;77.82
84957;BME280;75252;45.438;-73.814;2024-03-06T00:06:47;101139.63;;;7.62;77.54
84957;BME280;75252;45.438;-73.814;2024-03-06T00:09:13;101132.94;;;7.47;78.36
84957;BME280;75252;45.438;-73.814;2024-03-06T00:11:39;101137.53;;;7.39;78.11
84957;BME280;75252;45.438;-73.814;2024-03-06T00:14:05;101133.25;;;7.35;78.11
84957;BME280;75252;45.438;-73.814;2024-03-06T00:16:31;101132.59;;;7.27;78.82
84957;BME280;75252;45.438;-73.814;2024-03-06T00:18:57;101131.00;;;7.19;79.34
84957;BME280;75252;45.438;-73.814;2024-03-06T00:21:23;101123.19;;;7.14;79.60
84957;BME280;75252;45.438;-73.814;2024-03-06T00:23:49;101138.16;;;7.13;79.42
84957;BME280;75252;45.438;-73.814;2024-03-06T00:26:15;101136.59;;;7.05;79.61
84957;BME280;75252;45.438;-73.814;2024-03-06T00:28:41;101145.25;;;7.10;79.42
84957;BME280;75252;45.438;-73.814;2024-03-06T00:31:07;101157.66;;;7.06;80.17
84957;BME280;75252;45.438;-73.814;2024-03-06T00:33:33;101166.53;;;7.02;80.40
84957;BME280;75252;45.438;-73.814;2024-03-06T00:35:59;101152.47;;;7.02;80.02
84957;BME280;75252;45.438;-73.814;2024-03-06T00:38:25;101153.66;;;6.89;80.61
84957;BME280;75252;45.438;-73.814;2024-03-06T00:40:51;101160.50;;;6.96;80.37
84957;BME280;75252;45.438;-73.814;2024-03-06T00:43:17;101162.34;;;6.92;80.38
84957;BME280;75252;45.438;-73.814;2024-03-06T00:45:43;101162.25;;;6.97;80.48
84957;BME280;75252;45.438;-73.814;2024-03-06T00:48:09;101150.94;;;6.93;79.94
84957;BME280;75252;45.438;-73.814;2024-03-06T00:50:35;101148.16;;;6.99;79.95
84957;BME280;75252;45.438;-73.814;2024-03-06T00:53:01;101151.72;;;6.97;79.89
84957;BME280;75252;45.438;-73.814;2024-03-06T00:55:27;101141.19;;;6.97;79.85
84957;BME280;75252;45.438;-73.814;2024-03-06T00:57:52;101147.59;;;6.85;80.00
84957;BME280;75252;45.438;-73.814;2024-03-06T01:00:19;101159.09;;;6.81;80.61
84957;BME280;75252;45.438;-73.814;2024-03-06T01:02:45;101149.56;;;6.76;80.50
84957;BME280;75252;45.438;-73.814;2024-03-06T01:05:11;101148.72;;;6.74;80.02
84957;BME280;75252;45.438;-73.814;2024-03-06T01:07:40;101147.63;;;6.82;79.76
84957;BME280;75252;45.438;-73.814;2024-03-06T01:10:06;101151.16;;;6.83;80.59
84957;BME280;75252;45.438;-73.814;2024-03-06T01:12:33;101148.34;;;6.90;80.89
84957;BME280;75252;45.438;-73.814;2024-03-06T01:14:58;101146.97;;;6.73;81.33
84957;BME280;75252;45.438;-73.814;2024-03-06T01:17:24;101152.41;;;6.65;81.82
84957;BME280;75252;45.438;-73.814;2024-03-06T01:19:50;101146.09;;;6.74;81.34
84957;BME280;75252;45.438;-73.814;2024-03-06T01:22:17;101143.56;;;6.68;81.46
84957;BME280;75252;45.438;-73.814;2024-03-06T01:24:43;101153.31;;;6.63;82.16
84957;BME280;75252;45.438;-73.814;2024-03-06T01:27:09;101146.22;;;6.68;81.85
84957;BME280;75252;45.438;-73.814;2024-03-06T01:29:35;101142.47;;;6.78;80.82
84957;BME280;75252;45.438;-73.814;2024-03-06T01:32:01;101146.25;;;6.65;81.49
84957;BME280;75252;45.438;-73.814;2024-03-06T01:34:27;101136.72;;;6.59;82.79
84957;BME280;75252;45.438;-73.814;2024-03-06T01:36:53;101143.75;;;6.60;83.34
84957;BME280;75252;45.438;-73.814;2024-03-06T01:39:19;101138.47;;;6.60;83.78
84957;BME280;75252;45.438;-73.814;2024-03-06T01:41:50;101152.59;;;6.56;82.89
84957;BME280;75252;45.438;-73.814;2024-03-06T01:44:17;101154.28;;;6.60;82.89
84957;BME280;75252;45.438;-73.814;2024-03-06T01:46:45;101149.88;;;6.59;82.57
84957;BME280;75252;45.438;-73.814;2024-03-06T01:49:12;101142.88;;;6.60;83.77
84957;BME280;75252;45.438;-73.814;2024-03-06T01:51:40;101145.41;;;6.63;82.92
84957;BME280;75252;45.438;-73.814;2024-03-06T01:54:06;101141.84;;;6.65;83.24
84957;BME280;75252;45.438;-73.814;2024-03-06T01:56:34;101149.97;;;6.55;83.19
84957;BME280;75252;45.438;-73.814;2024-03-06T01:59:01;101164.84;;;6.57;84.22
84957;BME280;75252;45.438;-73.814;2024-03-06T02:01:28;101172.75;;;6.57;83.64
84957;BME280;75252;45.438;-73.814;2024-03-06T02:03:54;101167.69;;;6.47;83.90
84957;BME280;75252;45.438;-73.814;2024-03-06T02:06:21;101192.25;;;6.49;83.41
84957;BME280;75252;45.438;-73.814;2024-03-06T02:08:47;101195.03;;;6.43;84.19
84957;BME280;75252;45.438;-73.814;2024-03-06T02:11:13;101204.59;;;6.45;84.08
84957;BME280;75252;45.438;-73.814;2024-03-06T02:13:41;101197.34;;;6.58;84.95
84957;BME280;75252;45.438;-73.814;2024-03-06T02:16:07;101186.00;;;6.53;85.61
84957;BME280;75252;45.438;-73.814;2024-03-06T02:18:33;101192.19;;;6.52;85.40
84957;BME280;75252;45.438;-73.814;2024-03-06T02:20:59;101193.94;;;6.51;85.77
84957;BME280;75252;45.438;-73.814;2024-03-06T02:23:25;101193.94;;;6.51;85.72
84957;BME280;75252;45.438;-73.814;2024-03-06T02:25:51;101184.38;;;6.47;85.31
84957;BME280;75252;45.438;-73.814;2024-03-06T02:28:17;101198.94;;;6.65;84.89
84957;BME280;75252;45.438;-73.814;2024-03-06T02:30:43;101192.06;;;6.58;84.96
84957;BME280;75252;45.438;-73.814;2024-03-06T02:33:09;101191.13;;;6.62;84.22
84957;BME280;75252;45.438;-73.814;2024-03-06T02:35:36;101182.19;;;6.69;84.02
84957;BME280;75252;45.438;-73.814;2024-03-06T02:38:03;101176.88;;;6.72;84.25
84957;BME280;75252;45.438;-73.814;2024-03-06T02:40:32;101177.00;;;6.66;83.96
84957;BME280;75252;45.438;-73.814;2024-03-06T02:42:58;101177.94;;;6.62;84.31
84957;BME280;75252;45.438;-73.814;2024-03-06T02:45:24;101180.53;;;6.63;84.24
84957;BME280;75252;45.438;-73.814;2024-03-06T02:47:50;101177.72;;;6.74;84.04
84957;BME280;75252;45.438;-73.814;2024-03-06T02:50:16;101183.06;;;6.69;83.83
84957;BME280;75252;45.438;-73.814;2024-03-06T02:52:42;101190.13;;;6.67;84.41
84957;BME280;75252;45.438;-73.814;2024-03-06T02:55:08;101188.38;;;6.66;84.24
84957;BME280;75252;45.438;-73.814;2024-03-06T02:57:33;101189.91;;;6.78;83.71
84957;BME280;75252;45.438;-73.814;2024-03-06T02:59:59;101173.06;;;6.85;83.79
84957;BME280;75252;45.438;-73.814;2024-03-06T03:02:25;101176.50;;;6.88;83.82
84957;BME280;75252;45.438;-73.814;2024-03-06T03:04:51;101171.19;;;6.91;83.75
84957;BME280;75252;45.438;-73.814;2024-03-06T03:07:21;101179.13;;;6.88;83.86
84957;BME280;75252;45.438;-73.814;2024-03-06T03:09:47;101172.03;;;6.92;83.98
84957;BME280;75252;45.438;-73.814;2024-03-06T03:12:13;101186.69;;;7.05;83.79
84957;BME280;75252;45.438;-73.814;2024-03-06T03:14:42;101182.31;;;7.05;83.80
84957;BME280;75252;45.438;-73.814;2024-03-06T03:17:08;101184.09;;;7.02;83.95
84957;BME280;75252;45.438;-73.814;2024-03-06T03:19:34;101191.00;;;7.09;84.33
84957;BME280;75252;45.438;-73.814;2024-03-06T03:22:00;101197.94;;;7.13;84.22
84957;BME280;75252;45.438;-73.814;2024-03-06T03:24:30;101185.50;;;7.18;83.96
84957;BME280;75252;45.438;-73.814;2024-03-06T03:26:56;101195.94;;;7.24;84.22
84957;BME280;75252;45.438;-73.814;2024-03-06T03:29:22;101192.47;;;7.22;84.36
84957;BME280;75252;45.438;-73.814;2024-03-06T03:31:48;101200.19;;;7.30;84.29
84957;BME280;75252;45.438;-73.814;2024-03-06T03:34:14;101207.13;;;7.34;84.09
84957;BME280;75252;45.438;-73.814;2024-03-06T03:36:41;101206.16;;;7.38;83.61
84957;BME280;75252;45.438;-73.814;2024-03-06T03:39:07;101192.09;;;7.39;83.96
84957;BME280;75252;45.438;-73.814;2024-03-06T03:41:47;101184.00;;;7.46;83.92
84957;BME280;75252;45.438;-73.814;2024-03-06T03:44:14;101180.63;;;7.40;84.45
84957;BME280;75252;45.438;-73.814;2024-03-06T03:46:41;101179.88;;;7.35;84.36
84957;BME280;75252;45.438;-73.814;2024-03-06T03:49:07;101181.47;;;7.42;84.41
84957;BME280;75252;45.438;-73.814;2024-03-06T03:51:38;101176.09;;;7.46;84.25
84957;BME280;75252;45.438;-73.814;2024-03-06T03:54:04;101171.56;;;7.51;84.50
84957;BME280;75252;45.438;-73.814;2024-03-06T03:56:30;101178.53;;;7.54;84.64
84957;BME280;75252;45.438;-73.814;2024-03-06T03:58:57;101172.34;;;7.55;84.51
84957;BME280;75252;45.438;-73.814;2024-03-06T04:01:27;101188.13;;;7.58;84.61
84957;BME280;75252;45.438;-73.814;2024-03-06T04:03:53;101196.97;;;7.55;84.50
84957;BME280;75252;45.438;-73.814;2024-03-06T04:06:19;101202.31;;;7.52;84.99
84957;BME280;75252;45.438;-73.814;2024-03-06T04:08:45;101204.13;;;7.50;85.11
84957;BME280;75252;45.438;-73.814;2024-03-06T04:11:11;101207.47;;;7.57;84.74
84957;BME280;75252;45.438;-73.814;2024-03-06T04:13:38;101204.81;;;7.58;84.81
84957;BME280;75252;45.438;-73.814;2024-03-06T04:16:04;101207.34;;;7.63;84.77
84957;BME280;75252;45.438;-73.814;2024-03-06T04:18:31;101210.00;;;7.61;85.10
84957;BME280;75252;45.438;-73.814;2024-03-06T04:21:05;101209.97;;;7.64;84.80
84957;BME280;75252;45.438;-73.814;2024-03-06T04:23:31;101205.44;;;7.69;84.69
84957;BME280;75252;45.438;-73.814;2024-03-06T04:25:59;101194.63;;;7.78;84.84
84957;BME280;75252;45.438;-73.814;2024-03-06T04:28:25;101180.06;;;7.64;85.17
84957;BME280;75252;45.438;-73.814;2024-03-06T04:30:51;101187.03;;;7.66;85.42
84957;BME280;75252;45.438;-73.814;2024-03-06T04:33:17;101188.75;;;7.67;85.77
84957;BME280;75252;45.438;-73.814;2024-03-06T04:35:43;101184.25;;;7.72;85.88
84957;BME280;75252;45.438;-73.814;2024-03-06T04:38:09;101179.94;;;7.68;85.73
84957;BME280;75252;45.438;-73.814;2024-03-06T04:40:34;101183.59;;;7.63;86.30
84957;BME280;75252;45.438;-73.814;2024-03-06T04:43:01;101193.34;;;7.59;86.30
84957;BME280;75252;45.438;-73.814;2024-03-06T04:45:26;101202.19;;;7.58;86.42
84957;BME280;75252;45.438;-73.814;2024-03-06T04:47:54;101205.75;;;7.56;86.93
84957;BME280;75252;45.438;-73.814;2024-03-06T04:50:20;101207.50;;;7.55;86.62
84957;BME280;75252;45.438;-73.814;2024-03-06T04:52:46;101203.75;;;7.65;86.71
84957;BME280;75252;45.438;-73.814;2024-03-06T04:55:13;101187.19;;;7.60;86.96
84957;BME280;75252;45.438;-73.814;2024-03-06T04:57:43;101184.53;;;7.60;86.71
84957;BME280;75252;45.438;-73.814;2024-03-06T05:00:12;101183.72;;;7.58;86.79
84957;BME280;75252;45.438;-73.814;2024-03-06T05:02:39;101184.69;;;7.54;87.07
84957;BME280;75252;45.438;-73.814;2024-03-06T05:05:06;101196.06;;;7.56;87.17
84957;BME280;75252;45.438;-73.814;2024-03-06T05:07:33;101196.06;;;7.56;86.44
84957;BME280;75252;45.438;-73.814;2024-03-06T05:10:00;101194.22;;;7.60;86.92
84957;BME280;75252;45.438;-73.814;2024-03-06T05:12:27;101190.53;;;7.67;86.73
84957;BME280;75252;45.438;-73.814;2024-03-06T05:14:54;101194.19;;;7.61;86.59
84957;BME280;75252;45.438;-73.814;2024-03-06T05:17:21;101187.31;;;7.54;86.97
84957;BME280;75252;45.438;-73.814;2024-03-06T05:19:48;101193.44;;;7.55;86.91
84957;BME280;75252;45.438;-73.814;2024-03-06T05:22:15;101204.88;;;7.55;86.95
84957;BME280;75252;45.438;-73.814;2024-03-06T05:24:42;101200.53;;;7.54;86.87
84957;BME280;75252;45.438;-73.814;2024-03-06T05:27:09;101201.41;;;7.53;87.44
84957;BME280;75252;45.438;-73.814;2024-03-06T05:29:38;101204.84;;;7.57;87.24
84957;BME280;75252;45.438;-73.814;2024-03-06T05:32:05;101203.16;;;7.53;87.44
84957;BME280;75252;45.438;-73.814;2024-03-06T05:34:33;101212.78;;;7.55;87.32
84957;BME280;75252;45.438;-73.814;2024-03-06T05:36:59;101203.03;;;7.59;87.32
84957;BME280;75252;45.438;-73.814;2024-03-06T05:39:27;101212.50;;;7.67;87.14
84957;BME280;75252;45.438;-73.814;2024-03-06T05:42:00;101206.69;;;7.53;87.45
84957;BME280;75252;45.438;-73.814;2024-03-06T05:44:28;101209.13;;;7.61;87.56
84957;BME280;75252;45.438;-73.814;2024-03-06T05:46:54;101212.75;;;7.57;87.34
84957;BME280;75252;45.438;-73.814;2024-03-06T05:49:20;101212.78;;;7.55;87.50
84957;BME280;75252;45.438;-73.814;2024-03-06T05:51:46;101218.06;;;7.55;87.47
84957;BME280;75252;45.438;-73.814;2024-03-06T05:54:11;101215.47;;;7.54;87.73
84957;BME280;75252;45.438;-73.814;2024-03-06T05:56:37;101210.25;;;7.52;87.77
84957;BME280;75252;45.438;-73.814;2024-03-06T05:59:04;101211.97;;;7.53;87.67
84957;BME280;75252;45.438;-73.814;2024-03-06T06:01:34;101209.31;;;7.53;87.58
84957;BME280;75252;45.438;-73.814;2024-03-06T06:04:01;101198.13;;;7.44;87.58
84957;BME280;75252;45.438;-73.814;2024-03-06T06:06:27;101202.50;;;7.45;87.81
84957;BME280;75252;45.438;-73.814;2024-03-06T06:08:53;101193.72;;;7.44;87.91
84957;BME280;75252;45.438;-73.814;2024-03-06T06:11:19;101182.94;;;7.53;87.78
84957;BME280;75252;45.438;-73.814;2024-03-06T06:13:45;101199.72;;;7.51;87.77
84957;BME280;75252;45.438;-73.814;2024-03-06T06:16:12;101212.88;;;7.52;87.95
84957;BME280;75252;45.438;-73.814;2024-03-06T06:18:40;101204.81;;;7.58;87.39
84957;BME280;75252;45.438;-73.814;2024-03-06T06:21:07;101208.28;;;7.60;87.43
84957;BME280;75252;45.438;-73.814;2024-03-06T06:23:34;101210.06;;;7.60;87.35
84957;BME280;75252;45.438;-73.814;2024-03-06T06:26:00;101212.75;;;7.57;87.32
84957;BME280;75252;45.438;-73.814;2024-03-06T06:28:26;101223.38;;;7.54;87.31
84957;BME280;75252;45.438;-73.814;2024-03-06T06:30:53;101208.34;;;7.57;87.16
84957;BME280;75252;45.438;-73.814;2024-03-06T06:33:19;101201.50;;;7.50;87.21
84957;BME280;75252;45.438;-73.814;2024-03-06T06:35:46;101205.97;;;7.47;87.49
84957;BME280;75252;45.438;-73.814;2024-03-06T06:38:12;101221.91;;;7.42;87.79
84957;BME280;75252;45.438;-73.814;2024-03-06T06:40:38;101215.78;;;7.40;87.64
84957;BME280;75252;45.438;-73.814;2024-03-06T06:43:06;101224.47;;;7.45;87.21
84957;BME280;75252;45.438;-73.814;2024-03-06T06:45:32;101220.16;;;7.43;87.14
84957;BME280;75252;45.438;-73.814;2024-03-06T06:47:58;101220.19;;;7.40;87.63
84957;BME280;75252;45.438;-73.814;2024-03-06T06:50:23;101228.09;;;7.40;87.04
84957;BME280;75252;45.438;-73.814;2024-03-06T06:52:52;101221.03;;;7.42;87.20
84957;BME280;75252;45.438;-73.814;2024-03-06T06:55:18;101222.09;;;7.33;87.22
84957;BME280;75252;45.438;-73.814;2024-03-06T06:57:45;101224.00;;;7.27;87.74
84957;BME280;75252;45.438;-73.814;2024-03-06T07:00:11;101223.09;;;7.28;87.91
84957;BME280;75252;45.438;-73.814;2024-03-06T07:02:38;101223.09;;;7.28;87.58
84957;BME280;75252;45.438;-73.814;2024-03-06T07:05:05;101216.91;;;7.30;87.01
84957;BME280;75252;45.438;-73.814;2024-03-06T07:07:31;101213.44;;;7.28;87.24
84957;BME280;75252;45.438;-73.814;2024-03-06T07:09:57;101219.63;;;7.26;86.90
84957;BME280;75252;45.438;-73.814;2024-03-06T07:12:24;101223.19;;;7.25;86.97
84957;BME280;75252;45.438;-73.814;2024-03-06T07:14:50;101224.94;;;7.24;87.67
84957;BME280;75252;45.438;-73.814;2024-03-06T07:17:16;101228.38;;;7.28;87.05
84957;BME280;75252;45.438;-73.814;2024-03-06T07:19:42;101240.81;;;7.23;87.11
84957;BME280;75252;45.438;-73.814;2024-03-06T07:22:08;101249.72;;;7.17;87.10
84957;BME280;75252;45.438;-73.814;2024-03-06T07:24:34;101258.56;;;7.15;87.19
84957;BME280;75252;45.438;-73.814;2024-03-06T07:27:00;101241.94;;;7.11;87.37
84957;BME280;75252;45.438;-73.814;2024-03-06T07:29:27;101234.81;;;7.15;86.78
84957;BME280;75252;45.438;-73.814;2024-03-06T07:31:53;101252.38;;;7.16;86.93
84957;BME280;75252;45.438;-73.814;2024-03-06T07:34:22;101249.84;;;7.09;87.00
84957;BME280;75252;45.438;-73.814;2024-03-06T07:36:48;101247.31;;;7.06;87.46
84957;BME280;75252;45.438;-73.814;2024-03-06T07:39:19;101252.53;;;7.08;87.01
84957;BME280;75252;45.438;-73.814;2024-03-06T07:41:45;101247.38;;;7.02;87.05
84957;BME280;75252;45.438;-73.814;2024-03-06T07:44:11;101252.50;;;7.09;86.96
84957;BME280;75252;45.438;-73.814;2024-03-06T07:46:36;101246.50;;;7.03;86.37
84957;BME280;75252;45.438;-73.814;2024-03-06T07:49:03;101239.50;;;7.00;86.87
84957;BME280;75252;45.438;-73.814;2024-03-06T07:51:33;101234.31;;;6.97;87.47
84957;BME280;75252;45.438;-73.814;2024-03-06T07:53:59;101244.91;;;6.94;87.17
84957;BME280;75252;45.438;-73.814;2024-03-06T07:56:26;101244.00;;;6.97;87.34
84957;BME280;75252;45.438;-73.814;2024-03-06T07:58:52;101252.91;;;6.91;87.27
84957;BME280;75252;45.438;-73.814;2024-03-06T08:01:22;101245.00;;;6.90;87.66
84957;BME280;75252;45.438;-73.814;2024-03-06T08:03:48;101242.31;;;6.93;87.89
84957;BME280;75252;45.438;-73.814;2024-03-06T08:06:14;101259.09;;;6.89;88.08
84957;BME280;75252;45.438;-73.814;2024-03-06T08:08:42;101254.66;;;6.91;87.71
84957;BME280;75252;45.438;-73.814;2024-03-06T08:11:10;101265.31;;;6.85;87.99
84957;BME280;75252;45.438;-73.814;2024-03-06T08:13:37;101272.38;;;6.83;88.47
84957;BME280;75252;45.438;-73.814;2024-03-06T08:16:04;101280.28;;;6.83;88.16
84957;BME280;75252;45.438;-73.814;2024-03-06T08:18:30;101287.34;;;6.81;88.52
84957;BME280;75252;45.438;-73.814;2024-03-06T08:20:57;101278.63;;;6.79;88.41
84957;BME280;75252;45.438;-73.814;2024-03-06T08:23:23;101291.75;;;6.82;88.79
84957;BME280;75252;45.438;-73.814;2024-03-06T08:25:51;101292.75;;;6.75;88.78
84957;BME280;75252;45.438;-73.814;2024-03-06T08:28:18;101298.81;;;6.80;88.69
84957;BME280;75252;45.438;-73.814;2024-03-06T08:30:44;101298.84;;;6.77;89.19
84957;BME280;75252;45.438;-73.814;2024-03-06T08:33:10;101307.56;;;6.80;88.88
84957;BME280;75252;45.438;-73.814;2024-03-06T08:35:37;101314.63;;;6.78;89.20
84957;BME280;75252;45.438;-73.814;2024-03-06T08:38:03;101315.53;;;6.77;89.22
84957;BME280;75252;45.438;-73.814;2024-03-06T08:40:29;101324.31;;;6.76;89.44
84957;BME280;75252;45.438;-73.814;2024-03-06T08:42:55;101328.69;;;6.79;89.15
84957;BME280;75252;45.438;-73.814;2024-03-06T08:45:21;101328.69;;;6.79;89.25
84957;BME280;75252;45.438;-73.814;2024-03-06T08:47:48;101318.94;;;6.82;89.39
84957;BME280;75252;45.438;-73.814;2024-03-06T08:50:14;101314.44;;;6.89;89.00
84957;BME280;75252;45.438;-73.814;2024-03-06T08:52:41;101318.78;;;6.90;88.81
84957;BME280;75252;45.438;-73.814;2024-03-06T08:55:07;101318.19;;;6.77;89.54
84957;BME280;75252;45.438;-73.814;2024-03-06T08:57:34;101320.81;;;6.77;89.39
84957;BME280;75252;45.438;-73.814;2024-03-06T09:00:00;101329.59;;;6.76;89.66
84957;BME280;75252;45.438;-73.814;2024-03-06T09:02:26;101334.09;;;6.71;89.07
84957;BME280;75252;45.438;-73.814;2024-03-06T09:04:53;101330.56;;;6.72;89.42
84957;BME280;75252;45.438;-73.814;2024-03-06T09:07:20;101335.13;;;6.64;89.28
84957;BME280;75252;45.438;-73.814;2024-03-06T09:09:49;101330.75;;;6.62;89.33
84957;BME280;75252;45.438;-73.814;2024-03-06T09:12:17;101331.66;;;6.61;89.60
84957;BME280;75252;45.438;-73.814;2024-03-06T09:14:43;101337.75;;;6.64;89.21
84957;BME280;75252;45.438;-73.814;2024-03-06T09:17:10;101345.69;;;6.61;89.39
84957;BME280;75252;45.438;-73.814;2024-03-06T09:19:40;101352.72;;;6.62;89.72
84957;BME280;75252;45.438;-73.814;2024-03-06T09:22:06;101352.88;;;6.52;90.07
84957;BME280;75252;45.438;-73.814;2024-03-06T09:24:32;101356.31;;;6.58;89.62
84957;BME280;75252;45.438;-73.814;2024-03-06T09:26:58;101351.22;;;6.45;89.91
84957;BME280;75252;45.438;-73.814;2024-03-06T09:29:24;101353.81;;;6.49;89.81
84957;BME280;75252;45.438;-73.814;2024-03-06T09:31:50;101356.47;;;6.48;89.82
84957;BME280;75252;45.438;-73.814;2024-03-06T09:34:16;101355.56;;;6.49;89.32
84957;BME280;75252;45.438;-73.814;2024-03-06T09:36:46;101367.16;;;6.39;89.77
84957;BME280;75252;45.438;-73.814;2024-03-06T09:39:12;101359.41;;;6.30;90.04
84957;BME280;75252;45.438;-73.814;2024-03-06T09:41:45;101364.56;;;6.36;90.35
84957;BME280;75252;45.438;-73.814;2024-03-06T09:44:12;101364.63;;;6.33;90.17
84957;BME280;75252;45.438;-73.814;2024-03-06T09:46:49;101366.41;;;6.31;89.79
84957;BME280;75252;45.438;-73.814;2024-03-06T09:49:16;101377.03;;;6.25;90.72
84957;BME280;75252;45.438;-73.814;2024-03-06T09:51:47;101378.84;;;6.22;90.20
84957;BME280;75252;45.438;-73.814;2024-03-06T09:54:16;101380.63;;;6.17;90.61
84957;BME280;75252;45.438;-73.814;2024-03-06T09:56:49;101386.75;;;6.21;90.47
84957;BME280;75252;45.438;-73.814;2024-03-06T09:59:15;101381.59;;;6.15;91.00
84957;BME280;75252;45.438;-73.814;2024-03-06T10:01:53;101385.94;;;6.16;90.73
84957;BME280;75252;45.438;-73.814;2024-03-06T10:04:28;101393.84;;;6.16;91.23
84957;BME280;75252;45.438;-73.814;2024-03-06T10:06:56;101392.06;;;6.18;90.50
84957;BME280;75252;45.438;-73.814;2024-03-06T10:09:23;101397.38;;;6.13;90.75
84957;BME280;75252;45.438;-73.814;2024-03-06T10:11:49;101391.31;;;6.08;90.81
84957;BME280;75252;45.438;-73.814;2024-03-06T10:14:18;101401.00;;;6.06;90.79
84957;BME280;75252;45.438;-73.814;2024-03-06T10:17:10;101394.00;;;6.04;91.35
84957;BME280;75252;45.438;-73.814;2024-03-06T10:19:36;101392.31;;;6.00;91.43
84957;BME280;75252;45.438;-73.814;2024-03-06T10:22:06;101394.88;;;6.04;90.50
84957;BME280;75252;45.438;-73.814;2024-03-06T10:24:33;101398.31;;;6.09;90.85
84957;BME280;75252;45.438;-73.814;2024-03-06T10:27:00;101396.63;;;6.07;90.33
84957;BME280;75252;45.438;-73.814;2024-03-06T10:29:27;101398.41;;;6.03;90.20
84957;BME280;75252;45.438;-73.814;2024-03-06T10:31:55;101412.53;;;5.96;90.49
84957;BME280;75252;45.438;-73.814;2024-03-06T10:34:23;101414.31;;;5.94;91.13
84957;BME280;75252;45.438;-73.814;2024-03-06T10:36:53;101408.22;;;5.92;90.45
84957;BME280;75252;45.438;-73.814;2024-03-06T10:39:20;101410.84;;;5.92;90.54
84957;BME280;75252;45.438;-73.814;2024-03-06T10:41:51;101411.72;;;5.93;90.59
84957;BME280;75252;45.438;-73.814;2024-03-06T10:44:24;101418.72;;;5.95;90.58
84957;BME280;75252;45.438;-73.814;2024-03-06T10:47:01;101424.97;;;5.87;90.67
84957;BME280;75252;45.438;-73.814;2024-03-06T10:49:28;101421.47;;;5.85;90.33
84957;BME280;75252;45.438;-73.814;2024-03-06T10:52:04;101433.75;;;5.84;89.85
84957;BME280;75252;45.438;-73.814;2024-03-06T10:54:34;101440.84;;;5.78;90.13
84957;BME280;75252;45.438;-73.814;2024-03-06T10:57:02;101432.16;;;5.71;90.03
84957;BME280;75252;45.438;-73.814;2024-03-06T10:59:29;101433.03;;;5.72;90.22
84957;BME280;75252;45.438;-73.814;2024-03-06T11:01:56;101437.34;;;5.74;89.63
84957;BME280;75252;45.438;-73.814;2024-03-06T11:04:26;101418.09;;;5.72;90.02
84957;BME280;75252;45.438;-73.814;2024-03-06T11:07:00;101439.22;;;5.68;90.24
84957;BME280;75252;45.438;-73.814;2024-03-06T11:09:36;101449.78;;;5.63;89.53
84957;BME280;75252;45.438;-73.814;2024-03-06T11:12:06;101446.28;;;5.61;90.09
84957;BME280;75252;45.438;-73.814;2024-03-06T11:14:32;101436.63;;;5.63;89.72
84957;BME280;75252;45.438;-73.814;2024-03-06T11:17:08;101440.97;;;5.67;89.29
84957;BME280;75252;45.438;-73.814;2024-03-06T11:28:24;101498.94;;;5.58;88.42
84957;BME280;75252;45.438;-73.814;2024-03-06T11:31:03;101506.00;;;5.53;89.36
84957;BME280;75252;45.438;-73.814;2024-03-06T11:33:44;101515.72;;;5.48;89.33
84957;BME280;75252;45.438;-73.814;2024-03-06T11:41:27;101526.16;;;5.53;88.84
84957;BME280;75252;45.438;-73.814;2024-03-06T11:43:54;101527.09;;;5.49;88.51
84957;BME280;75252;45.438;-73.814;2024-03-06T11:46:41;101535.81;;;5.54;88.83
84957;BME280;75252;45.438;-73.814;2024-03-06T11:49:34;101536.81;;;5.42;88.95
84957;BME280;75252;45.438;-73.814;2024-03-06T11:52:07;101541.16;;;5.45;88.75
84957;BME280;75252;45.438;-73.814;2024-03-06T11:54:36;101542.97;;;5.40;88.60
84957;BME280;75252;45.438;-73.814;2024-03-06T11:57:04;101552.53;;;5.48;88.19
84957;BME280;75252;45.438;-73.814;2024-03-06T11:59:35;101556.06;;;5.46;87.81
84957;BME280;75252;45.438;-73.814;2024-03-06T12:02:03;101550.81;;;5.46;88.27
84957;BME280;75252;45.438;-73.814;2024-03-06T12:04:35;101556.03;;;5.47;88.00
84957;BME280;75252;45.438;-73.814;2024-03-06T12:07:04;101554.34;;;5.42;87.11
84957;BME280;75252;45.438;-73.814;2024-03-06T12:09:35;101555.16;;;5.47;88.20
84957;BME280;75252;45.438;-73.814;2024-03-06T12:12:01;101549.09;;;5.42;87.95
84957;BME280;75252;45.438;-73.814;2024-03-06T12:14:29;101550.88;;;5.38;87.39
84957;BME280;75252;45.438;-73.814;2024-03-06T12:16:59;101543.84;;;5.37;88.25
84957;BME280;75252;45.438;-73.814;2024-03-06T12:19:33;101549.19;;;5.32;88.01
84957;BME280;75252;45.438;-73.814;2024-03-06T12:22:01;101551.78;;;5.34;87.84
84957;BME280;75252;45.438;-73.814;2024-03-06T12:24:27;101566.66;;;5.35;88.50
84957;BME280;75252;45.438;-73.814;2024-03-06T12:27:04;101577.22;;;5.32;88.32
84957;BME280;75252;45.438;-73.814;2024-03-06T12:29:31;101577.19;;;5.38;86.93
84957;BME280;75252;45.438;-73.814;2024-03-06T12:32:01;101586.84;;;5.33;88.01
84957;BME280;75252;45.438;-73.814;2024-03-06T12:34:28;101589.56;;;5.24;87.97
84957;BME280;75252;45.438;-73.814;2024-03-06T12:36:55;101598.25;;;5.29;87.23
84957;BME280;75252;45.438;-73.814;2024-03-06T12:39:23;101600.88;;;5.33;87.45
84957;BME280;75252;45.438;-73.814;2024-03-06T12:41:50;101601.78;;;5.32;86.84
84957;BME280;75252;45.438;-73.814;2024-03-06T12:44:16;101603.56;;;5.23;87.58
84957;BME280;75252;45.438;-73.814;2024-03-06T12:46:42;101609.69;;;5.25;87.38
84957;BME280;75252;45.438;-73.814;2024-03-06T12:49:08;101612.28;;;5.31;86.46
84957;BME280;75252;45.438;-73.814;2024-03-06T12:51:34;101614.09;;;5.23;87.08
84957;BME280;75252;45.438;-73.814;2024-03-06T12:54:01;101624.63;;;5.21;86.59
84957;BME280;75252;45.438;-73.814;2024-03-06T12:56:27;101614.94;;;5.25;86.27